createdAt,value
2023-01-05T00:00:11.887Z,50.28
2023-01-05T00:01:44.157Z,45.03
2023-01-05T00:03:16.371Z,46.45
2023-01-05T00:04:48.487Z,48.63
2023-01-05T00:06:20.643Z,44.97
2023-01-05T00:07:53.197Z,49.10
2023-01-05T00:09:25.162Z,45.80
2023-01-05T00:11:15.657Z,47.55
2023-01-05T00:13:06.089Z,45.63
2023-01-05T00:14:56.611Z,46.97
2023-01-05T00:16:47.511Z,43.92
2023-01-05T00:18:38.029Z,48.13
2023-01-05T00:20:36.876Z,49.28
2023-01-05T00:22:32.368Z,50.38
2023-01-05T00:25:41.506Z,51.50
2023-01-05T00:27:13.433Z,52.65
2023-01-05T00:28:45.402Z,50.88
2023-01-05T00:30:20.058Z,50.58
2023-01-05T00:31:52.183Z,50.00
2023-01-05T00:33:24.245Z,50.03
2023-01-05T00:34:57.594Z,50.42
2023-01-05T00:36:29.581Z,50.47
2023-01-05T00:38:01.902Z,54.80
2023-01-05T00:39:34.129Z,51.15
2023-01-05T00:41:06.106Z,49.67
2023-01-05T00:42:38.424Z,51.55
2023-01-05T00:44:10.385Z,53.72
2023-01-05T00:45:42.501Z,53.35
2023-01-05T00:47:15.120Z,48.08
2023-01-05T00:48:47.062Z,49.87
2023-01-05T00:50:19.838Z,54.42
2023-01-05T00:51:51.899Z,54.33
2023-01-05T00:53:23.826Z,51.78
2023-01-05T00:54:55.861Z,51.33
2023-01-05T00:56:27.889Z,54.08
2023-01-05T00:57:59.943Z,60.70
2023-01-05T00:59:31.900Z,61.85
2023-01-05T01:01:10.050Z,61.85
2023-01-05T01:02:42.233Z,50.50
2023-01-05T01:04:14.828Z,52.97
2023-01-05T01:05:46.849Z,52.55
2023-01-05T01:07:19.764Z,60.13
2023-01-05T01:08:51.733Z,59.83
2023-01-05T01:10:25.722Z,70.85
2023-01-05T01:11:57.789Z,67.22
2023-01-05T01:13:29.745Z,68.05
2023-01-05T01:15:01.918Z,64.00
2023-01-05T01:16:34.891Z,62.88
2023-01-05T01:18:06.874Z,69.43
2023-01-05T01:19:39.499Z,65.13
2023-01-05T01:21:11.584Z,63.63
2023-01-05T01:24:26.199Z,62.53
2023-01-05T01:25:58.196Z,56.15
2023-01-05T01:27:31.441Z,53.45
2023-01-05T01:29:03.490Z,58.45
2023-01-05T01:30:38.898Z,60.42
2023-01-05T01:32:11.022Z,58.25
2023-01-05T01:33:43.057Z,60.88
2023-01-05T01:35:15.054Z,50.83
2023-01-05T01:36:47.602Z,50.47
2023-01-05T01:38:19.601Z,55.10
2023-01-05T01:39:51.640Z,50.05
2023-01-05T01:41:23.667Z,51.03
2023-01-05T01:42:55.818Z,49.72
2023-01-05T01:44:49.563Z,51.90
2023-01-05T01:46:22.806Z,55.63
2023-01-05T01:47:59.627Z,57.80
2023-01-05T01:49:31.596Z,61.35
2023-01-05T01:51:08.388Z,62.38
2023-01-05T01:52:41.107Z,50.05
2023-01-05T01:54:16.634Z,42.42
2023-01-05T01:55:48.679Z,47.58
2023-01-05T01:57:21.678Z,45.70
2023-01-05T01:58:54.040Z,53.45
2023-01-05T02:00:26.133Z,57.25
2023-01-05T02:02:01.233Z,41.72
2023-01-05T02:03:33.476Z,40.15
2023-01-05T02:05:09.752Z,43.58
2023-01-05T02:06:41.812Z,48.60
2023-01-05T02:08:16.511Z,45.05
2023-01-05T02:09:48.572Z,48.58
2023-01-05T02:11:32.821Z,44.97
2023-01-05T02:13:10.527Z,54.33
2023-01-05T02:14:59.134Z,93.35
2023-01-05T02:16:53.021Z,55.75
2023-01-05T02:18:34.681Z,54.25
2023-01-05T02:20:50.619Z,59.92
2023-01-05T02:22:41.271Z,62.33
2023-01-05T02:24:30.901Z,53.40
2023-01-05T02:26:17.549Z,49.38
2023-01-05T02:28:20.571Z,43.15
2023-01-05T02:29:55.735Z,48.72
2023-01-05T02:31:35.133Z,41.42
2023-01-05T02:33:16.286Z,43.72
2023-01-05T02:35:20.613Z,46.85
2023-01-05T02:37:01.218Z,59.70
2023-01-05T02:38:36.125Z,45.00
2023-01-05T02:40:14.991Z,56.70
2023-01-05T02:41:56.774Z,48.10
2023-01-05T02:43:29.301Z,46.72
2023-01-05T02:45:03.106Z,39.45
2023-01-05T02:46:35.222Z,37.08
2023-01-05T02:48:07.291Z,37.60
2023-01-05T02:49:40.742Z,34.35
2023-01-05T02:53:08.995Z,44.25
2023-01-05T02:54:48.158Z,47.55
2023-01-05T02:56:25.571Z,51.92
2023-01-05T02:58:05.689Z,54.53
2023-01-05T02:59:45.210Z,43.38
2023-01-05T03:01:21.789Z,40.00
2023-01-05T03:02:57.090Z,39.03
2023-01-05T03:04:33.621Z,42.45
2023-01-05T03:06:27.048Z,48.08
2023-01-05T03:08:07.163Z,56.88
2023-01-05T03:09:40.652Z,48.30
2023-01-05T03:11:31.484Z,37.25
2023-01-05T03:13:25.592Z,35.00
2023-01-05T03:15:00.960Z,38.20
2023-01-05T03:16:36.326Z,35.38
2023-01-05T03:18:11.131Z,61.88
2023-01-05T03:19:44.768Z,64.38
2023-01-05T03:23:07.604Z,37.92
2023-01-05T03:24:58.984Z,43.78
2023-01-05T03:26:49.635Z,42.70
2023-01-05T03:28:46.623Z,50.05
2023-01-05T03:30:37.505Z,46.35
2023-01-05T03:32:40.448Z,56.03
2023-01-05T03:34:36.690Z,38.92
2023-01-05T03:36:09.430Z,44.85
2023-01-05T03:37:48.136Z,48.08
2023-01-05T03:39:20.960Z,40.28
2023-01-05T03:40:54.571Z,34.33
2023-01-05T03:42:26.882Z,32.30
2023-01-05T03:43:58.921Z,33.72
2023-01-05T03:45:45.591Z,32.17
2023-01-05T03:47:17.658Z,29.20
2023-01-05T03:48:50.147Z,31.98
2023-01-05T03:50:22.365Z,31.85
2023-01-05T03:51:54.423Z,34.80
2023-01-05T03:53:26.542Z,33.88
2023-01-05T03:54:58.531Z,46.15
2023-01-05T03:56:30.583Z,38.88
2023-01-05T03:58:02.543Z,32.60
2023-01-05T03:59:34.614Z,37.38
2023-01-05T04:01:07.272Z,35.55
2023-01-05T04:02:39.468Z,42.65
2023-01-05T04:04:11.499Z,44.25
2023-01-05T04:05:43.465Z,50.83
2023-01-05T04:07:15.450Z,55.53
2023-01-05T04:08:47.503Z,55.10
2023-01-05T04:10:19.431Z,52.92
2023-01-05T04:11:51.379Z,37.42
2023-01-05T04:13:23.474Z,34.08
2023-01-05T04:14:55.515Z,33.83
2023-01-05T04:16:28.997Z,38.30
2023-01-05T04:19:33.045Z,39.97
2023-01-05T04:21:05.849Z,46.00
2023-01-05T04:22:37.827Z,41.75
2023-01-05T04:24:11.227Z,41.20
2023-01-05T04:25:43.215Z,40.25
2023-01-05T04:27:15.196Z,32.15
2023-01-05T04:28:47.144Z,30.58
2023-01-05T04:30:19.317Z,30.90
2023-01-05T04:31:51.363Z,32.15
2023-01-05T04:33:24.606Z,35.70
2023-01-05T04:34:56.678Z,49.45
2023-01-05T04:36:28.689Z,33.88
2023-01-05T04:38:00.767Z,47.05
2023-01-05T04:39:32.834Z,34.42
2023-01-05T04:41:05.133Z,50.17
2023-01-05T04:42:37.132Z,43.85
2023-01-05T04:44:09.347Z,48.88
2023-01-05T04:45:41.554Z,51.25
2023-01-05T04:47:13.617Z,68.32
2023-01-05T04:48:45.556Z,60.60
2023-01-05T04:50:18.506Z,51.30
2023-01-05T04:51:50.621Z,79.68
2023-01-05T04:53:23.656Z,73.15
2023-01-05T04:54:55.711Z,81.95
2023-01-05T04:56:27.758Z,110.88
2023-01-05T04:57:59.894Z,89.55
2023-01-05T04:59:31.933Z,68.35
2023-01-05T05:01:04.102Z,59.22
2023-01-05T05:02:36.469Z,56.13
2023-01-05T05:04:08.545Z,53.97
2023-01-05T05:05:40.514Z,47.15
2023-01-05T05:07:12.543Z,51.10
2023-01-05T05:08:47.031Z,44.95
2023-01-05T05:10:19.433Z,50.20
2023-01-05T05:11:51.443Z,47.78
2023-01-05T05:13:23.676Z,53.95
2023-01-05T05:14:55.721Z,52.83
2023-01-05T05:16:27.800Z,57.88
2023-01-05T05:18:04.171Z,59.03
2023-01-05T05:19:39.108Z,63.17
2023-01-05T05:21:11.126Z,44.42
2023-01-05T05:22:43.215Z,47.03
2023-01-05T05:24:15.196Z,46.17
2023-01-05T05:25:50.995Z,59.67
2023-01-05T05:27:23.415Z,44.08
2023-01-05T05:28:55.472Z,49.95
2023-01-05T05:30:27.552Z,55.17
2023-01-05T05:31:59.726Z,51.72
2023-01-05T05:33:31.728Z,44.70
2023-01-05T05:36:44.617Z,51.63
2023-01-05T05:38:16.603Z,52.78
2023-01-05T05:39:48.763Z,48.92
2023-01-05T05:41:20.939Z,79.18
2023-01-05T05:42:52.976Z,65.38
2023-01-05T05:44:24.982Z,53.10
2023-01-05T05:45:56.959Z,59.70
2023-01-05T05:47:29.025Z,50.38
2023-01-05T05:49:01.238Z,53.00
2023-01-05T05:50:33.763Z,40.97
2023-01-05T05:52:05.879Z,41.75
2023-01-05T05:53:37.914Z,46.83
2023-01-05T05:55:10.386Z,58.13
2023-01-05T05:56:42.417Z,42.72
2023-01-05T05:58:14.451Z,67.13
2023-01-05T05:59:46.436Z,57.15
2023-01-05T06:01:18.617Z,51.67
2023-01-05T06:02:50.761Z,54.67
2023-01-05T06:04:22.891Z,37.50
2023-01-05T06:05:55.023Z,46.33
2023-01-05T06:07:27.082Z,54.80
2023-01-05T06:08:59.155Z,62.72
2023-01-05T06:10:33.983Z,72.93
2023-01-05T06:12:06.283Z,55.72
2023-01-05T06:13:38.361Z,45.30
2023-01-05T06:15:11.169Z,42.17
2023-01-05T06:16:43.173Z,64.05
2023-01-05T06:18:16.167Z,61.42
2023-01-05T06:19:48.219Z,74.88
2023-01-05T06:21:21.753Z,50.22
2023-01-05T06:24:28.728Z,76.40
2023-01-05T06:26:00.804Z,83.45
2023-01-05T06:27:33.233Z,61.70
2023-01-05T06:29:05.259Z,55.63
2023-01-05T06:30:37.401Z,94.03
2023-01-05T06:32:09.446Z,90.10
2023-01-05T06:33:41.558Z,79.18
2023-01-05T06:35:13.753Z,70.97
2023-01-05T06:36:45.910Z,68.78
2023-01-05T06:38:18.943Z,56.05
2023-01-05T06:39:51.200Z,71.20
2023-01-05T06:41:23.187Z,56.92
2023-01-05T06:42:55.231Z,51.60
2023-01-05T06:44:27.195Z,38.20
2023-01-05T06:45:59.419Z,38.60
2023-01-05T06:47:31.588Z,52.72
2023-01-05T06:49:03.587Z,44.13
2023-01-05T06:50:35.658Z,37.97
2023-01-05T06:52:10.888Z,36.72
2023-01-05T06:53:47.872Z,45.10
2023-01-05T06:55:20.112Z,39.40
2023-01-05T06:56:52.235Z,34.03
2023-01-05T06:58:24.367Z,33.78
2023-01-05T06:59:56.507Z,30.13
2023-01-05T07:01:28.669Z,31.77
2023-01-05T07:03:00.843Z,35.17
2023-01-05T07:04:32.828Z,33.83
2023-01-05T07:06:06.749Z,32.28
2023-01-05T07:07:42.141Z,36.30
2023-01-05T07:09:14.169Z,33.45
2023-01-05T07:10:46.300Z,32.92
2023-01-05T07:12:18.602Z,31.67
2023-01-05T07:13:51.238Z,35.33
2023-01-05T07:15:23.378Z,38.90
2023-01-05T07:16:55.362Z,33.83
2023-01-05T07:18:27.320Z,34.03
2023-01-05T07:19:59.637Z,40.03
2023-01-05T07:21:31.652Z,38.22
2023-01-05T07:23:03.712Z,36.38
2023-01-05T07:24:35.786Z,37.25
2023-01-05T07:26:09.468Z,30.70
2023-01-05T07:27:41.655Z,31.70
2023-01-05T07:29:13.966Z,31.08
2023-01-05T07:30:51.923Z,30.38
2023-01-05T07:32:24.020Z,29.33
2023-01-05T07:33:56.007Z,27.05
2023-01-05T07:35:28.841Z,27.48
2023-01-05T07:37:00.998Z,30.15
2023-01-05T07:38:33.689Z,28.80
2023-01-05T07:40:06.484Z,27.93
2023-01-05T07:41:38.861Z,26.75
2023-01-05T07:43:10.983Z,28.58
2023-01-05T07:44:43.010Z,28.15
2023-01-05T07:46:16.117Z,28.02
2023-01-05T07:47:48.164Z,28.08
2023-01-05T07:49:20.692Z,26.45
2023-01-05T07:50:53.097Z,32.10
2023-01-05T07:52:25.167Z,29.55
2023-01-05T07:53:57.398Z,27.42
2023-01-05T07:55:29.443Z,29.08
2023-01-05T07:57:01.527Z,25.15
2023-01-05T07:58:33.819Z,29.55
2023-01-05T08:00:07.014Z,36.22
2023-01-05T08:01:39.115Z,36.22
2023-01-05T08:03:11.202Z,31.50
2023-01-05T08:04:43.322Z,29.45
2023-01-05T08:06:18.023Z,26.67
2023-01-05T08:07:50.040Z,28.23
2023-01-05T08:09:40.692Z,25.48
2023-01-05T08:11:17.360Z,33.85
2023-01-05T08:13:08.006Z,30.58
2023-01-05T08:14:39.998Z,25.60
2023-01-05T08:16:12.132Z,30.17
2023-01-05T08:17:44.248Z,27.35
2023-01-05T08:19:18.738Z,30.48
2023-01-05T08:20:56.036Z,37.85
2023-01-05T08:22:28.116Z,30.20
2023-01-05T08:24:00.238Z,27.25
2023-01-05T08:25:32.276Z,29.38
2023-01-05T08:27:04.545Z,27.13
2023-01-05T08:28:37.183Z,28.35
2023-01-05T08:30:09.993Z,30.70
2023-01-05T08:31:44.595Z,30.38
2023-01-05T08:33:16.897Z,27.08
2023-01-05T08:34:55.056Z,29.25
2023-01-05T08:36:28.187Z,24.35
2023-01-05T08:38:00.277Z,24.20
2023-01-05T08:39:33.466Z,22.42
2023-01-05T08:41:05.778Z,20.70
2023-01-05T08:42:37.868Z,18.95
2023-01-05T08:44:14.484Z,16.98
2023-01-05T08:45:53.191Z,16.30
2023-01-05T08:47:28.432Z,17.00
2023-01-05T08:49:06.029Z,17.50
2023-01-05T08:50:38.803Z,16.08
2023-01-05T08:52:10.793Z,14.98
2023-01-05T08:53:42.953Z,14.60
2023-01-05T08:55:15.187Z,16.58
2023-01-05T08:56:50.793Z,14.20
2023-01-05T08:58:23.113Z,15.07
2023-01-05T08:59:55.247Z,15.15
2023-01-05T09:01:28.036Z,14.93
2023-01-05T09:03:00.318Z,12.77
2023-01-05T09:04:32.554Z,13.65
2023-01-05T09:06:06.184Z,15.40
2023-01-05T09:07:38.203Z,15.02
2023-01-05T09:09:10.710Z,13.75
2023-01-05T09:10:42.973Z,13.77
2023-01-05T09:12:15.139Z,12.02
2023-01-05T09:13:52.826Z,13.25
2023-01-05T09:15:24.913Z,12.40
2023-01-05T09:17:08.088Z,13.32
2023-01-05T09:18:41.716Z,14.32
2023-01-05T09:20:13.879Z,12.50
2023-01-05T09:21:45.951Z,13.90
2023-01-05T09:23:17.933Z,13.18
2023-01-05T09:24:49.913Z,11.75
2023-01-05T09:26:21.996Z,12.63
2023-01-05T09:27:58.449Z,11.93
2023-01-05T09:29:30.537Z,11.35
2023-01-05T09:31:13.979Z,12.95
2023-01-05T09:32:46.204Z,13.57
2023-01-05T09:34:19.415Z,12.70
2023-01-05T09:35:57.916Z,11.98
2023-01-05T09:37:29.964Z,12.70
2023-01-05T09:39:01.980Z,11.38
2023-01-05T09:40:40.732Z,10.98
2023-01-05T09:42:17.573Z,12.02
2023-01-05T09:44:12.055Z,10.95
2023-01-05T09:47:21.266Z,8.57
2023-01-05T09:48:56.023Z,9.13
2023-01-05T09:50:32.686Z,11.90
2023-01-05T09:52:11.029Z,12.48
2023-01-05T09:53:43.099Z,8.85
2023-01-05T09:55:20.174Z,8.55
2023-01-05T09:57:09.136Z,9.40
2023-01-05T09:58:44.359Z,7.97
2023-01-05T10:00:17.271Z,8.95
2023-01-05T10:01:51.564Z,9.43
2023-01-05T10:04:01.721Z,8.93
2023-01-05T10:05:17.321Z,9.75
2023-01-05T10:06:56.710Z,9.43
2023-01-05T10:08:38.671Z,9.50
2023-01-05T10:10:36.910Z,9.07
2023-01-05T10:12:27.658Z,9.57
2023-01-05T10:14:15.349Z,9.95
2023-01-05T10:15:51.495Z,8.35
2023-01-05T10:17:41.321Z,9.32
2023-01-05T10:19:16.466Z,9.18
2023-01-05T10:21:09.595Z,12.57
2023-01-05T10:22:50.760Z,9.57
2023-01-05T10:24:47.103Z,8.13
2023-01-05T10:26:32.715Z,8.32
2023-01-05T10:28:35.734Z,9.27
2023-01-05T10:30:24.137Z,8.45
2023-01-05T10:32:03.425Z,8.48
2023-01-05T10:33:57.837Z,9.30
2023-01-05T10:36:00.598Z,8.50
2023-01-05T10:37:33.936Z,8.40
2023-01-05T10:39:14.500Z,9.52
2023-01-05T10:41:14.795Z,9.77
2023-01-05T10:45:07.091Z,8.45
2023-01-05T10:46:45.958Z,9.25
2023-01-05T10:48:30.465Z,8.48
2023-01-05T10:50:04.299Z,10.00
2023-01-05T10:51:37.158Z,10.38
2023-01-05T10:53:19.142Z,10.73
2023-01-05T10:55:01.265Z,8.45
2023-01-05T10:56:33.566Z,8.90
2023-01-05T10:58:05.576Z,8.80
2023-01-05T10:59:57.363Z,8.65
2023-01-05T11:01:31.140Z,9.40
2023-01-05T11:03:03.965Z,7.28
2023-01-05T11:04:36.213Z,8.57
2023-01-05T11:06:09.930Z,8.63
2023-01-05T11:07:53.579Z,8.27
2023-01-05T11:09:26.934Z,9.23
2023-01-05T11:12:38.037Z,9.68
2023-01-05T11:14:16.910Z,7.18
2023-01-05T11:15:54.341Z,8.07
2023-01-05T11:17:27.696Z,8.63
2023-01-05T11:20:35.469Z,7.95
2023-01-05T11:22:30.178Z,7.65
2023-01-05T11:24:04.125Z,8.38
2023-01-05T11:25:36.334Z,8.57
2023-01-05T11:27:20.346Z,9.38
2023-01-05T11:29:01.536Z,10.18
2023-01-05T11:30:33.878Z,7.88
2023-01-05T11:32:10.147Z,8.60
2023-01-05T11:33:42.142Z,7.63
2023-01-05T11:35:33.208Z,7.25
2023-01-05T11:37:10.472Z,7.68
2023-01-05T11:38:42.552Z,8.23
2023-01-05T11:40:17.451Z,9.30
2023-01-05T11:41:50.488Z,9.00
2023-01-05T11:43:25.149Z,8.45
2023-01-05T11:45:28.994Z,7.25
2023-01-05T11:47:01.137Z,7.63
2023-01-05T11:48:35.116Z,7.70
2023-01-05T11:50:10.205Z,8.35
2023-01-05T11:51:42.330Z,6.55
2023-01-05T11:53:40.969Z,8.50
2023-01-05T11:55:24.491Z,8.40
2023-01-05T11:57:29.324Z,8.63
2023-01-05T12:01:01.887Z,8.07
2023-01-05T12:02:50.404Z,6.63
2023-01-05T12:04:44.582Z,9.20
2023-01-05T12:06:53.939Z,8.63
2023-01-05T12:09:11.263Z,36.35
2023-01-05T12:10:57.376Z,18.80
2023-01-05T12:14:18.179Z,12.95
2023-01-05T12:16:11.543Z,12.68
2023-01-05T12:17:52.680Z,33.75
2023-01-05T12:19:39.960Z,43.30
2023-01-05T12:21:24.678Z,30.73
2023-01-05T12:23:18.360Z,39.35
2023-01-05T12:25:21.246Z,54.47
2023-01-05T12:27:17.663Z,18.60
2023-01-05T12:35:38.331Z,7.20
2023-01-05T12:37:44.058Z,9.63
2023-01-05T12:39:39.602Z,7.80
2023-01-05T12:41:49.379Z,7.55
2023-01-05T12:43:51.820Z,10.82
2023-01-05T12:45:48.768Z,8.95
2023-01-05T12:47:30.338Z,9.20
2023-01-05T12:49:08.140Z,7.68
2023-01-05T12:50:58.405Z,9.30
2023-01-05T12:52:35.396Z,8.13
2023-01-05T12:54:50.870Z,8.35
2023-01-05T12:56:41.496Z,6.30
2023-01-05T12:58:35.807Z,6.82
2023-01-05T13:02:02.518Z,12.13
2023-01-05T13:03:42.677Z,5.95
2023-01-05T13:05:19.823Z,6.30
2023-01-05T13:06:53.611Z,7.80
2023-01-05T13:08:52.651Z,6.60
2023-01-05T13:10:31.210Z,6.57
2023-01-05T13:12:07.519Z,7.60
2023-01-05T13:13:46.770Z,10.45
2023-01-05T13:15:44.349Z,6.90
2023-01-05T13:17:21.825Z,10.00
2023-01-05T13:19:14.487Z,10.27
2023-01-05T13:20:54.231Z,8.38
2023-01-05T13:22:32.126Z,11.77
2023-01-05T13:24:09.573Z,11.73
2023-01-05T13:26:03.883Z,10.38
2023-01-05T13:29:49.080Z,7.90
2023-01-05T13:31:33.561Z,7.50
2023-01-05T13:33:26.684Z,6.38
2023-01-05T13:35:11.198Z,6.40
2023-01-05T13:37:25.949Z,5.63
2023-01-05T13:39:11.627Z,6.00
2023-01-05T13:41:13.629Z,8.15
2023-01-05T13:45:01.426Z,6.82
2023-01-05T13:46:42.592Z,9.52
2023-01-05T13:49:03.333Z,9.70
2023-01-05T13:51:00.356Z,6.93
2023-01-05T13:53:03.816Z,7.43
2023-01-05T13:54:54.506Z,7.75
2023-01-05T13:56:32.552Z,6.95
2023-01-05T13:58:06.149Z,7.85
2023-01-05T13:59:46.747Z,8.15
2023-01-05T14:01:44.960Z,9.27
2023-01-05T14:03:33.314Z,9.82
2023-01-05T14:05:25.602Z,8.00
2023-01-05T14:07:07.571Z,9.88
2023-01-05T14:08:40.603Z,8.32
2023-01-05T14:10:27.619Z,7.50
2023-01-05T14:12:08.851Z,11.73
2023-01-05T14:14:11.712Z,11.15
2023-01-05T14:15:44.096Z,9.27
2023-01-05T14:17:54.803Z,6.65
2023-01-05T14:19:33.046Z,9.43
2023-01-05T14:21:11.515Z,12.02
2023-01-05T14:22:44.313Z,19.52
2023-01-05T14:24:27.717Z,17.23
2023-01-05T14:26:04.419Z,15.35
2023-01-05T14:28:16.744Z,9.35
2023-01-05T14:29:55.048Z,9.85
2023-01-05T14:31:36.831Z,8.95
2023-01-05T14:33:09.791Z,11.00
2023-01-05T14:36:47.918Z,28.15
2023-01-05T14:38:24.730Z,20.92
2023-01-05T14:40:04.137Z,27.60
2023-01-05T14:41:41.384Z,21.98
2023-01-05T14:43:28.975Z,17.23
2023-01-05T14:45:06.895Z,18.60
2023-01-05T14:46:52.506Z,18.90
2023-01-05T14:48:33.540Z,20.30
2023-01-05T14:50:06.821Z,28.70
2023-01-05T14:51:40.065Z,31.40
2023-01-05T14:53:21.216Z,24.98
2023-01-05T14:55:05.626Z,18.85
2023-01-05T14:56:39.255Z,18.98
2023-01-05T14:58:14.879Z,20.23
2023-01-05T14:59:47.559Z,17.80
2023-01-05T15:01:29.975Z,21.10
2023-01-05T15:05:16.934Z,26.65
2023-01-05T15:07:04.593Z,19.75
2023-01-05T15:09:10.573Z,24.75
2023-01-05T15:12:32.674Z,22.88
2023-01-05T15:14:38.124Z,17.67
2023-01-05T15:16:18.165Z,15.38
2023-01-05T15:18:37.139Z,13.30
2023-01-05T15:20:44.393Z,28.98
2023-01-05T15:22:37.563Z,90.82
2023-01-05T15:24:58.804Z,28.73
2023-01-05T15:26:45.600Z,57.88
2023-01-05T15:28:51.397Z,62.00
2023-01-05T15:31:00.698Z,63.42
2023-01-05T15:32:40.082Z,40.35
2023-01-05T15:34:25.371Z,46.70
2023-01-05T15:36:05.002Z,22.60
2023-01-05T15:37:39.348Z,23.27
2023-01-05T15:41:10.493Z,17.30
2023-01-05T15:42:44.473Z,17.88
2023-01-05T15:44:19.641Z,24.15
2023-01-05T15:45:53.732Z,18.55
2023-01-05T15:47:28.423Z,20.95
2023-01-05T15:49:00.479Z,17.08
2023-01-05T15:50:50.387Z,21.00
2023-01-05T15:52:37.357Z,24.85
2023-01-05T15:54:21.406Z,24.00
2023-01-05T15:55:53.785Z,14.23
2023-01-05T15:57:26.087Z,15.13
2023-01-05T15:58:58.827Z,12.95
2023-01-05T16:00:35.628Z,14.30
2023-01-05T16:02:28.650Z,16.15
2023-01-05T16:04:09.819Z,20.20
2023-01-05T16:05:42.245Z,17.92
2023-01-05T16:07:17.447Z,17.02
2023-01-05T16:10:42.099Z,12.40
2023-01-05T16:12:24.395Z,10.23
2023-01-05T16:14:03.277Z,9.45
2023-01-05T16:15:36.347Z,11.32
2023-01-05T16:17:15.577Z,9.30
2023-01-05T16:18:52.199Z,12.38
2023-01-05T16:20:25.493Z,23.15
2023-01-05T16:22:06.676Z,28.35
2023-01-05T16:23:45.413Z,16.48
2023-01-05T16:25:25.920Z,34.03
2023-01-05T16:26:58.243Z,31.70
2023-01-05T16:28:30.343Z,11.30
2023-01-05T16:30:27.158Z,11.57
2023-01-05T16:31:59.701Z,14.65
2023-01-05T16:33:38.812Z,15.25
2023-01-05T16:35:35.760Z,12.40
2023-01-05T16:37:17.194Z,21.27
2023-01-05T16:40:21.397Z,39.65
2023-01-05T16:42:25.738Z,34.85
2023-01-05T16:44:01.846Z,23.65
2023-01-05T16:45:34.060Z,24.08
2023-01-05T16:47:10.438Z,16.30
2023-01-05T16:48:42.427Z,19.95
2023-01-05T16:50:20.445Z,23.08
2023-01-05T16:51:52.955Z,29.50
2023-01-05T16:53:25.438Z,39.30
2023-01-05T16:55:28.028Z,15.98
2023-01-05T16:57:02.537Z,17.30
2023-01-05T16:58:36.221Z,15.27
2023-01-05T17:00:26.341Z,12.73
2023-01-05T17:01:58.625Z,11.80
2023-01-05T17:03:32.550Z,12.70
2023-01-05T17:05:06.443Z,15.65
2023-01-05T17:06:39.000Z,16.55
2023-01-05T17:08:22.684Z,14.10
2023-01-05T17:09:54.991Z,22.42
2023-01-05T17:11:37.842Z,21.58
2023-01-05T17:13:20.987Z,24.52
2023-01-05T17:14:53.157Z,43.38
2023-01-05T17:16:25.528Z,42.25
2023-01-05T17:17:57.941Z,29.20
2023-01-05T17:19:36.891Z,19.95
2023-01-05T17:21:09.352Z,23.88
2023-01-05T17:22:41.412Z,23.80
2023-01-05T17:24:13.584Z,21.95
2023-01-05T17:25:45.646Z,16.58
2023-01-05T17:27:17.666Z,17.45
2023-01-05T17:28:50.164Z,22.98
2023-01-05T17:30:23.115Z,15.45
2023-01-05T17:31:55.947Z,28.00
2023-01-05T17:33:27.978Z,25.80
2023-01-05T17:35:00.031Z,24.35
2023-01-05T17:36:34.692Z,21.40
2023-01-05T17:38:06.791Z,24.75
2023-01-05T17:39:41.414Z,28.42
2023-01-05T17:41:16.027Z,35.72
2023-01-05T17:42:49.302Z,53.53
2023-01-05T17:44:21.380Z,39.28
2023-01-05T17:45:53.437Z,29.42
2023-01-05T17:47:25.496Z,23.92
2023-01-05T17:48:59.277Z,21.52
2023-01-05T17:52:24.589Z,31.52
2023-01-05T17:53:57.764Z,34.15
2023-01-05T17:55:30.278Z,21.05
2023-01-05T17:57:02.310Z,21.45
2023-01-05T17:58:34.379Z,21.70
2023-01-05T18:00:08.918Z,29.33
2023-01-05T18:01:40.943Z,23.60
2023-01-05T18:03:17.375Z,51.78
2023-01-05T18:04:50.235Z,44.88
2023-01-05T18:06:23.418Z,48.03
2023-01-05T18:07:55.519Z,50.85
2023-01-05T18:09:27.591Z,34.58
2023-01-05T18:11:02.684Z,43.47
2023-01-05T18:12:35.057Z,39.72
2023-01-05T18:15:44.365Z,44.55
2023-01-05T18:17:16.450Z,40.42
2023-01-05T18:18:48.488Z,35.15
2023-01-05T18:20:21.470Z,35.45
2023-01-05T18:21:53.726Z,38.20
2023-01-05T18:23:25.832Z,35.22
2023-01-05T18:24:57.892Z,36.55
2023-01-05T18:26:30.083Z,33.80
2023-01-05T18:28:02.403Z,28.08
2023-01-05T18:29:34.969Z,26.95
2023-01-05T18:31:11.808Z,23.08
2023-01-05T18:32:44.104Z,22.60
2023-01-05T18:34:16.178Z,29.02
2023-01-05T18:35:50.455Z,21.08
2023-01-05T18:38:55.546Z,24.90
2023-01-05T18:40:28.777Z,26.38
2023-01-05T18:42:01.150Z,29.73
2023-01-05T18:43:33.985Z,42.17
2023-01-05T18:45:19.125Z,32.08
2023-01-05T18:46:52.133Z,28.27
2023-01-05T18:48:24.516Z,29.95
2023-01-05T18:49:58.415Z,26.63
2023-01-05T18:51:30.628Z,31.40
2023-01-05T18:53:02.754Z,26.73
2023-01-05T18:54:34.927Z,27.00
2023-01-05T18:56:11.419Z,21.52
2023-01-05T18:57:43.366Z,20.17
2023-01-05T18:59:15.582Z,20.85
2023-01-05T19:00:47.675Z,22.17
2023-01-05T19:02:19.803Z,19.02
2023-01-05T19:03:53.178Z,18.52
2023-01-05T19:05:25.293Z,18.35
2023-01-05T19:06:57.363Z,18.52
2023-01-05T19:08:29.413Z,15.50
2023-01-05T19:10:01.434Z,17.00
2023-01-05T19:11:33.787Z,16.15
2023-01-05T19:13:06.542Z,19.42
2023-01-05T19:14:38.621Z,16.30
2023-01-05T19:16:10.815Z,20.10
2023-01-05T19:17:42.941Z,35.15
2023-01-05T19:19:16.106Z,18.30
2023-01-05T19:20:56.285Z,13.60
2023-01-05T19:22:28.432Z,14.93
2023-01-05T19:24:01.767Z,14.60
2023-01-05T19:25:34.018Z,18.73
2023-01-05T19:27:06.018Z,15.32
2023-01-05T19:28:40.415Z,13.27
2023-01-05T19:30:14.730Z,12.55
2023-01-05T19:31:48.351Z,14.45
2023-01-05T19:33:20.441Z,13.07
2023-01-05T19:34:52.461Z,14.43
2023-01-05T19:36:24.998Z,17.25
2023-01-05T19:37:57.451Z,25.23
2023-01-05T19:39:29.556Z,28.33
2023-01-05T19:41:13.156Z,27.00
2023-01-05T19:42:45.226Z,24.60
2023-01-05T19:44:19.208Z,27.77
2023-01-05T19:45:51.221Z,26.50
2023-01-05T19:47:23.258Z,25.92
2023-01-05T19:48:56.263Z,22.48
2023-01-05T19:50:28.371Z,15.07
2023-01-05T19:52:00.458Z,18.33
2023-01-05T19:53:33.810Z,19.02
2023-01-05T19:55:06.793Z,21.70
2023-01-05T19:56:39.190Z,28.60
2023-01-05T19:58:11.175Z,61.65
2023-01-05T19:59:43.543Z,26.85
2023-01-05T20:01:16.481Z,41.92
2023-01-05T20:02:48.634Z,49.40
2023-01-05T20:04:20.856Z,32.28
2023-01-05T20:05:52.905Z,20.33
2023-01-05T20:07:24.902Z,24.33
2023-01-05T20:09:01.278Z,19.58
2023-01-05T20:10:33.323Z,19.55
2023-01-05T20:12:14.484Z,17.50
2023-01-05T20:13:52.241Z,19.38
2023-01-05T20:15:24.369Z,16.27
2023-01-05T20:17:04.469Z,15.65
2023-01-05T20:18:37.846Z,14.32
2023-01-05T20:20:12.469Z,13.02
2023-01-05T20:21:44.716Z,13.80
2023-01-05T20:23:16.804Z,13.07
2023-01-05T20:24:48.822Z,13.13
2023-01-05T20:26:22.938Z,15.15
2023-01-05T20:27:54.944Z,14.02
2023-01-05T20:29:28.100Z,15.55
2023-01-05T20:31:00.524Z,14.57
2023-01-05T20:32:35.052Z,15.40
2023-01-05T20:34:12.997Z,22.10
2023-01-05T20:35:45.121Z,15.38
2023-01-05T20:37:17.169Z,20.35
2023-01-05T20:38:49.594Z,33.20
2023-01-05T20:40:21.720Z,21.42
2023-01-05T20:41:54.442Z,23.88
2023-01-05T20:43:26.493Z,31.77
2023-01-05T20:44:58.556Z,27.23
2023-01-05T20:46:36.535Z,32.10
2023-01-05T20:48:08.633Z,41.30
2023-01-05T20:49:41.328Z,26.92
2023-01-05T20:51:14.299Z,26.00
2023-01-05T20:52:46.444Z,25.80
2023-01-05T20:54:18.700Z,22.55
2023-01-05T20:55:52.086Z,20.45
2023-01-05T20:57:24.136Z,16.45
2023-01-05T20:58:56.609Z,16.98
2023-01-05T21:00:28.648Z,21.98
2023-01-05T21:02:01.777Z,17.58
2023-01-05T21:03:34.831Z,28.40
2023-01-05T21:05:07.498Z,19.10
2023-01-05T21:06:39.725Z,19.10
2023-01-05T21:08:11.810Z,21.05
2023-01-05T21:09:43.997Z,22.60
2023-01-05T21:11:18.018Z,23.52
2023-01-05T21:12:50.154Z,16.27
2023-01-05T21:14:22.185Z,16.27
2023-01-05T21:16:05.826Z,15.50
2023-01-05T21:17:37.914Z,13.20
2023-01-05T21:19:12.504Z,15.63
2023-01-05T21:20:44.570Z,15.73
2023-01-05T21:22:16.545Z,19.23
2023-01-05T21:23:49.855Z,15.07
2023-01-05T21:25:23.216Z,16.27
2023-01-05T21:26:55.417Z,17.05
2023-01-05T21:28:29.197Z,17.00
2023-01-05T21:30:02.024Z,18.63
2023-01-05T21:31:34.897Z,17.92
2023-01-05T21:33:07.043Z,19.00
2023-01-05T21:34:39.023Z,16.05
2023-01-05T21:36:19.813Z,16.30
2023-01-05T21:37:51.873Z,13.57
2023-01-05T21:39:26.210Z,14.13
2023-01-05T21:41:05.609Z,14.15
2023-01-05T21:42:40.669Z,16.40
2023-01-05T21:44:14.294Z,16.85
2023-01-05T21:47:38.416Z,15.85
2023-01-05T21:49:11.386Z,15.95
2023-01-05T21:51:01.858Z,15.98